Hlavní strana
METAR-TAF:

METAR-TAF

Letiště :

Danville, Illinois, Spojené státy americké

zeměpisná šířka: 40-11-58N, zeměpisná délka: 087-35-44W, výška: 212 m

Aktuální stav počasí

Zpráva byla vytvořena před 21 hodinami a 41 minutami, v 23:55 UTC
Jižní vítr 5 kt
Teplota 25°C
Vlhkost vzduchu 83%
Tlak 1008 hPa
Viditelnost: 16.1 km
Jasno

METAR: KDNV 202355Z AUTO 18005KT 10SM CLR 25/22 A2977 RMK AO2 T02500215 10289 20250 PWINO

Čas: 16:36 (21:36 UTC)


TAF: chybějící

Stav a předpovědi počasí z více než 4 000 letišť (zprávy METAR a TAF).

Červené a žluté tečky na mapě představují dostupné meteorologické stanice.

Když kurzor umístíte na tečku, zobrazí se název stanice.

Pak kliknutím zobrazíte stav a předpověď počasí.

Chcete-li změnit mapu, kliknutím na zelené tlačítko se znaménkem +mapu přiblížíte, kliknutím na zelené tlačítko se znaménkem – mapu oddálíte a kliknutím na zelené šipky přejdete na sousední mapy.


METAR-TAF: